Main page
METAR-TAF:

METAR-TAF

Airports :

Laupheim Air Base

Laupheim, Germany

latitude: 48-13N, longitude: 009-55E, elevation: 538 m

Current weather observation

The report was made 1 hour and 8 minutes ago, at 10:20 UTC
Wind 4 kt from the South
Temperature -4°C
Humidity 93%
Pressure 1011 hPa
Visibility: 3200 m
Overcast at a height of 300 ft
mist

METAR: ETHL 221020Z 19004KT 3200 BR OVC003 M04/M05 Q1011 YLO YLO TEMPO AMB

Time: 12:28 (11:28 UTC)

Forecast

The report was made 3 hours and 11 minutes ago, at 08:17 UTC
Forecast valid from 22 at 09 UTC to 22 at 17 UTC
Wind 5 kt from the South/Southwest
Visibility: 4000 m
Broken clouds at a height of 400 ft
mist
Temporary
from 22 at 09 UTC to 22 at 11 UTC
Wind 3 kt from variable directions
Visibility: 1500 m
Overcast at a height of 200 ft
mist

TAF: ETHL 220817Z 2209/2217 21005KT 4000 BR BKN004 TEMPO 2209/2211 VRB03KT 1500 BR OVC002

Weather observations and forecasts of more than 4000 airports (METAR and TAF reports).

The available stations are represented by yellow and red dots on the map.

Hover mouse over dot to see the name of the station.

Then click to see weather observations and forecasts.

To change the map : click on the green buttons with a black cross to zoom in, on the green button with a dash to zoom out, or on the green arrows for adjacent maps.


METAR-TAF: